Accueil
METAR-TAF:

METAR-TAF

Aéroports :

Aéroport de Bathurst

Bathurst, Nouveau-Brunswick, Canada

latitude: 47-38N, longitude: 065-45W, altitude: 59 m

Observation

Le bulletin a été fait il y a 30 heures et 13 minutes, à 00:00 UTC
Vent 3 kt de sud/sud-est
Température 18°C
Humidité 83%
Pression 1022 hPa
Visibilité: 14.5 km
Ciel clair

METAR: CZBF 210000Z AUTO 15003KT 9SM CLR 18/15 A3018 RMK SLP222 DENSITY ALT 200FT

Heure: 03:13 (06:13 UTC)

Prévision

Le bulletin a été fait il y a 16 heures et 35 minutes, à 13:38 UTC
Prévision valable du 20 à 14 UTC au 21 à 02 UTC
Vent 3 kt de direction variable
Visibilité: 10 km
Ciel clair
Evoluant progressivement
du 20 à 14 UTC au 20 à 16 UTC
Vent 7 kt de sud/sud-est
Evoluant progressivement
du 21 à 00 UTC au 21 à 02 UTC
Vent 3 kt de direction variable

TAF: CZBF 201338Z 2014/2102 VRB03KT P6SM SKC BECMG 2014/2016 15007KT BECMG 2100/2102 VRB03KT RMK FCST BASED ON AUTO OBS. NXT FCST BY 202000Z

Observations et prévisions météorologiques de plus de 4000 aéroports (messages METAR et TAF).

Les stations disponibles sont représentées par des disques jaunes et rouges sur la carte.

Passer la souris dessus pour voir le nom de la station.

Cliquer dessus pour voir les observations et prévisions météorologiques.

Pour changer de carte: cliquez sur les boutons verts avec une croix noire pour zoomer, sur le bouton vert avec un tiret pour effectuer un zoom arrière, ou sur les flèches vertes pour les cartes adjacentes.


METAR-TAF: